Terminal Aerodrome Forecast
Issued by NWS

Home | Current Version | Previous Version | Text Only | Print | Product List | Glossary On
Versions: 1 2 3 4 5 6 7 8 9 10 11 12 13 14 15 16 17 18
184
FTUS43 KJKL 071139
TAFSME
TAF
KSME 071139Z 0712/0812 00000KT P6SM SCT250
     FM071600 22006KT P6SM SCT100 BKN250
     FM080800 23006KT 2SM SHRASN BKN025 OVC050
     FM081000 25006KT 2SM SHRASN OVC012=

USA.gov is the U.S. government's official web portal to all federal, state and local government web resources and services.